Sandpoint, Idaho
Current Conditions -  °F | °C
As of 6:15 AM on Saturday 22 Nov 2014 (Local Time) from KSZT Reporting Station
Overcast Overcast  
Wind Chill: 29°   Ceiling: 3200
Heat Index: 37°   Visibility: 10mi
Dew Point: 32°   Wind: 15mph
Humidity: 81%   Direction: 250°WSW
Pressure: 29.48"   Gusts: 23mph
Location:  48.27°N, 116.54°W
Report Text: KSZT 221415Z AUTO 25013G20KT 10SM OVC032 03/00 A2948 RMK AO2
Loading
Personal Weather Stations






























Interactive Weather Map New forecast layout! Learn more

10-Day Weather Forecast

Advertisements
Track Severe Weather on mobile